Aérodrome :
LOGIN :

S'inscrire | Disclaimer

   EN    FR    IT 

 










Légende :    VFR   VFR Marginal   IFR   IFR Intensif   IFR Très Intensif
Visi : 
Plafond : 
>= 8 km
>= 3000ft
5 à 8 km
1000 à 3000 ft
1500m à 5 km
500 à 1000 ft
800 à 1500m
200 à 500 ft
< 800m
< 200 ft
Symboles :   Orages  Brouillard  Fortes neiges  Fortes précipitations  Vent > 20 kt
SIGMETs :   Divers  Orages  Givrage  Turbulence  Onde Orograph.  Cendres Volcan.






- Altitude de l'aérodrome : 18 ft
- Code IATA : AJA


LFKJ - Ajaccio

DERNIER METAR :
  • 212130Z AUTO 05005KT 9999 SCT048/// SCT066/// BKN170/// ///CB 11/09 Q1011 TEMPO 2000 TSRA

METARs EXPIRÉS :
  • 212100Z AUTO 05005KT 020V080 9999 FEW033/// OVC054/// ///TCU 11/10 Q1011 TEMPO 2000 TSRA BKN025 SCT035CB BKN040
  • 212030Z AUTO 04004KT 010V090 9999 FEW046 BKN052 OVC062 11/10 Q1011 TEMPO 2000 TSRA BKN025 SCT035CB BKN040
  • 212000Z AUTO 04004KT 010V070 9999 FEW046/// BKN062/// OVC086/// ///TCU 11/10 Q1011 TEMPO SHRA
  • 211930Z AUTO 03003KT 360V070 9999 FEW035/// BKN043/// OVC086/// ///CB 12/10 Q1011 TEMPO SHRA
  • 211900Z AUTO 07004KT 040V100 9999 FEW042 BKN064 OVC074 12/10 Q1011 TEMPO SHRA SCT020TCU BKN030

TAF TAF LFKJ
Valide du 21 à 21h jusqu'au 22 à 21h UTC


212000Z 2121/2221 04006KT 9999 FEW035 FEW040CB BKN045 BKN085
TEMPO 2121/2205 4000 RA
PROB40 2121/2203 2000 TSRA BKN025 SCT035CB BKN040 BKN070
TEMPO 2208/2211 RA
TEMPO 2214/2218 20010KT 4000 RA
BECMG 2218/2220 10010KT
ATIS : +33 4 95 23 59 85



MET'MAP, la Météo Aéronautique d'un coup d'oeil ! - Copyright ORBIFLY Décembre 2007 - Disclaimer

ORBIFLY MET'MAP TEAM :

Programmation & Développement : Alexandra Zaïnal
Conception & Développement : Baudouin d'Aumeries
Co-Programmation & Développement : Marc-Olivier Méhu
Soutien technique & logistique : Manuel Goepfert

Contact : metmap@orbifly.com




SOURCES & CREDITS :

   NOAA